• Join FlightAware (Why Join?)
  • Login
  • US Flag 
07:51AM EDT


 

Airport Tracker/Info


-or-


 

Live Flight TrackerFlight Track Log ✈ GJS6314 ✈ 10-Jun-2013 ✈ KPWM - KRDU

Flight Track Log - Related Links

Times and Time Zones

All times are in EDT time to prevent confusion due to time zone crossing. See the GJS6314 flight status page for this flight to view local times or setup timezone preferences in your user account.

Time Position Orientation Groundspeed Altitude Reporting Facility
EDT Latitude Longitude Course Direction KTS MPH feet Rate Location/Type
06:45PM 43.6422 -70.2367 211° Southwest 184 212 2,700  Level Boston Center
06:46PM 43.6061 -70.2006 144° Southeast 194 223 5,500 2,760 Climbing Boston Center
06:47PM 43.5469 -70.2689 220° Southwest 223 257 8,300 3,000 Climbing Boston Center
06:48PM 43.4794 -70.3483 221° Southwest 291 335 11,600 3,000 Climbing Boston Center
06:49PM 43.4122 -70.4308 222° Southwest 330 380 14,400 2,520 Climbing Boston Center
06:50PM 43.3592 -70.4925 220° Southwest 346 398 16,700 2,400 Climbing Boston Center
06:51PM 43.0955 -70.7482 211° Southwest  Level FlightAware Approximate
06:51PM 43.2733 -70.5950 221° Southwest 351 404 19,300  Level Boston Center
06:52PM 43.1975 -70.6856 221° Southwest 351 404 21,400 1,980 Climbing Boston Center
06:53PM 43.1092 -70.7564 210° Southwest 362 417 23,300 1,740 Climbing Boston Center
06:54PM 43.0142 -70.8300 210° Southwest 375 432 24,900 1,380 Climbing Boston Center
06:55PM 42.9358 -70.8831 206° Southwest 390 449 26,100 1,440 Climbing Boston Center
06:56PM 42.8181 -70.9625 206° Southwest 396 456 27,800 1,380 Climbing Boston Center
06:57PM 42.7083 -71.0189 201° Southwest 409 471 28,900 1,020 Climbing Boston Center
06:58PM 42.5964 -71.0750 200° South 423 487 29,900 960 Climbing Boston Center
06:59PM 42.4975 -71.1589 212° Southwest 423 487 30,900 1,020 Climbing Boston Center
07:00PM 42.4025 -71.2592 218° Southwest 434 499 32,000 1,320 Climbing Boston Center
07:01PM 42.3097 -71.3564 218° Southwest 434 499 33,600 1,620 Climbing Boston Center
07:02PM 42.2211 -71.4533 219° Southwest 427 491 35,300 1,620 Climbing Boston Center
07:03PM 42.1342 -71.5442 218° Southwest 415 478 36,900 1,560 Climbing Boston Center
07:04PM 42.0328 -71.6381 215° Southwest 409 471 38,500 1,260 Climbing Boston Center
07:05PM 41.9500 -71.7228 217° Southwest 397 457 39,500 720 Climbing Boston Center
07:06PM 41.8650 -71.8100 217° Southwest 391 450 40,000 240 Climbing Boston Center
07:07PM 41.7800 -71.9000 218° Southwest 391 450 40,000  Level Boston Center
07:08PM 41.6950 -71.9869 217° Southwest 391 450 40,000  Level Boston Center
07:09PM 41.6142 -72.0681 217° Southwest 385 443 40,000  Level Boston Center
07:10PM 41.5289 -72.1544 217° Southwest 385 443 40,000  Level Boston Center
07:11PM 41.4436 -72.2433 218° Southwest 391 450 40,000  Level Boston Center
07:12PM 41.3603 -72.3239 216° Southwest 385 443 40,000  Level Boston Center
07:13PM 41.2731 -72.4125 217° Southwest 390 449 40,000  Level Boston Center
07:14PM 41.1833 -72.5089 219° Southwest 403 464 40,000  Level Boston Center
07:15PM 41.0978 -72.5944 217° Southwest 403 464 40,000  Level Boston Center
07:16PM 41.0081 -72.6822 216° Southwest 409 471 40,000  Level Boston Center
07:17PM 40.9203 -72.7725 218° Southwest 409 471 40,000  Level Boston Center
07:18PM 40.8303 -72.8569 215° Southwest 409 471 40,000  Level Boston Center
07:19PM 40.7425 -72.9469 218° Southwest 409 471 40,000  Level Boston Center
07:21PM 40.6567 -73.0256 215° Southwest 399 459 40,000  Level Boston Center
07:22PM 40.5478 -73.1256 215° Southwest 399 459 40,000  Level Boston Center
07:23PM 40.3853 -73.2986 219° Southwest 396 456 40,000  Level Washington Center
07:25PM 40.2972 -73.3803 215° Southwest 401 461 40,000  Level Washington Center
07:26PM 40.2114 -73.4672 218° Southwest 406 467 40,000  Level Washington Center
07:26PM 40.1314 -73.5375 214° Southwest 414 476 40,000  Level Washington Center
07:27PM 40.0431 -73.6214 216° Southwest 414 476 40,000  Level Washington Center
07:28PM 39.9550 -73.7078 217° Southwest 414 476 40,000  Level Washington Center
07:29PM 39.8667 -73.7883 215° Southwest 409 471 40,000  Level Washington Center
07:30PM 39.7783 -73.8744 217° Southwest 409 471 40,000  Level Washington Center
07:31PM 39.6897 -73.9547 215° Southwest 409 471 40,000  Level Washington Center
07:33PM 39.6014 -74.0403 217° Southwest 414 476 40,000  Level Washington Center
07:34PM 39.5128 -74.1256 217° Southwest 414 476 40,000  Level Washington Center
07:34PM 39.4283 -74.2053 216° Southwest 414 476 40,000  Level Washington Center
07:36PM 39.3375 -74.2900 216° Southwest 423 487 40,000  Level Washington Center
07:37PM 39.2508 -74.3747 217° Southwest 417 480 40,000 -600 Level Washington Center
07:37PM 39.1622 -74.4567 216° Southwest 406 467 38,900 -2,040 Descending Washington Center
07:39PM 39.0650 -74.5464 216° Southwest 401 461 36,000 -3,000 Descending Washington Center
07:39PM 38.9656 -74.6092 206° Southwest 401 461 33,000 -2,040 Descending Washington Center
07:40PM 38.8617 -74.6506 197° South 395 455 32,000 -540 Descending Washington Center
07:41PM 38.7683 -74.7450 218° Southwest 406 467 32,000  Level Washington Center
07:42PM 38.6753 -74.8392 218° Southwest 423 487 32,000  Level Washington Center
07:43PM 38.5842 -74.9358 220° Southwest 436 502 32,000  Level Washington Center
07:45PM 38.4969 -75.0319 221° Southwest 436 502 32,000  Level Washington Center
07:45PM 38.4100 -75.1333 222° Southwest 429 494 32,000  Level Washington Center
07:46PM 38.3228 -75.2344 222° Southwest 429 494 32,000  Level Washington Center
07:48PM 38.2458 -75.3247 223° Southwest 429 494 32,000  Level Washington Center
07:49PM 38.1583 -75.4281 223° Southwest 429 494 32,000  Level Washington Center
07:50PM 38.0689 -75.5206 219° Southwest 424 488 32,000  Level Washington Center
07:50PM 37.9814 -75.6286 224° Southwest 424 488 32,000  Level Washington Center
07:52PM 37.8936 -75.7233 220° Southwest 424 488 32,000  Level Washington Center
07:52PM 37.8058 -75.8206 221° Southwest 424 488 32,000 -420 Level Washington Center
07:53PM 37.7181 -75.9200 222° Southwest 424 488 31,200 -1,320 Descending Washington Center
07:54PM 37.6303 -76.0167 221° Southwest 424 488 29,400 -1,800 Descending Washington Center
07:55PM 37.5442 -76.1131 222° Southwest 419 482 27,600 -1,740 Descending Washington Center
07:56PM 37.4583 -76.1989 218° Southwest 414 476 26,000 -1,560 Descending Washington Center
07:57PM 37.3786 -76.2869 221° Southwest 403 464 24,500 -1,020 Descending Washington Center
07:58PM 37.2989 -76.3750 221° Southwest 393 452 24,000 -300 Descending Washington Center
07:59PM 37.2189 -76.4656 222° Southwest 387 445 24,000 -780 Level Washington Center
08:00PM 37.1369 -76.5506 220° Southwest 387 445 22,500 -1,500 Descending Washington Center
08:01PM 37.0633 -76.6331 222° Southwest 376 433 21,000 -1,260 Descending Washington Center
08:03PM 36.9917 -76.7128 222° Southwest 365 420 20,000 -540 Descending Washington Center
08:03PM 36.9178 -76.7922 221° Southwest 360 414 20,000  Level Washington Center
08:04PM 36.8439 -76.8739 222° Southwest 360 414 20,000  Level Washington Center
08:06PM 36.7681 -76.9558 221° Southwest 360 414 20,000 -540 Level Washington Center
08:06PM 36.7003 -77.0425 226° Southwest 360 414 19,000 -1,320 Descending Washington Center
08:07PM 36.6508 -77.1453 239° Southwest 355 409 17,500 -1,500 Descending Washington Center
08:08PM 36.6014 -77.2503 240° Southwest 355 409 16,000 -780 Descending Washington Center
08:10PM 36.5583 -77.3478 241° Southwest 343 395 16,000  Level Washington Center
08:10PM 36.5131 -77.4450 240° Southwest 336 387 16,000  Level Washington Center
08:12PM 36.4656 -77.5444 239° Southwest 331 381 16,000  Level Washington Center
08:13PM 36.4158 -77.6517 240° Southwest 331 381 16,000  Level Washington Center
08:13PM 36.3703 -77.7536 241° Southwest 331 381 16,000 -360 Level Washington Center
08:14PM 36.3225 -77.8528 239° Southwest 331 381 15,400 -1,200 Descending Washington Center
08:15PM 36.2769 -77.9469 239° Southwest 331 381 13,700 -1,800 Descending Washington Center
08:16PM 36.2531 -77.9950 238° Southwest 319 367 12,800 -1,680 Descending Washington Center
08:17PM 36.2333 -78.0433 243° Southwest 331 381 12,000 -1,560 Descending Washington Center
08:17PM 36.1919 -78.1272 239° Southwest 317 365 10,600 -1,200 Descending Washington Center
08:18PM 36.1631 -78.2086 246° West 245 282 9,800 -1,260 Descending Washington Center
08:19PM 36.1406 -78.2772 248° West 236 272 8,200 -1,740 Descending Washington Center
08:20PM 36.1158 -78.3536 248° West 250 288 6,600 -1,680 Descending Washington Center
08:20PM 36.1114 -78.3661 246° West 253 291 6,300 -720 Descending Washington Center
08:21PM 36.0869 -78.4347 246° West 247 284 5,800 -1,140 Descending Washington Center
08:22PM 36.0597 -78.5186 248° West 238 274 4,200 -1,440 Descending Washington Center
08:23PM 36.0372 -78.5844 247° West 221 254 3,000 -660 Descending Washington Center
08:24PM 36.0111 -78.6347 237° Southwest 190 219 3,000  Level Washington Center
08:24PM 36.0022 -78.6472 229° Southwest 214 246 3,000 -300 Level Washington Center
08:25PM 35.9767 -78.6747 221° Southwest 153 176 2,700 -420 Descending Washington Center
08:26PM 35.9742 -78.6847 253° West 186 214 2,600 -600 Descending Washington Center
08:26PM 35.9550 -78.7044 220° Southwest 97 112 2,100 -600 Descending Washington Center
08:27PM 35.9356 -78.7294 226° Southwest 95 109 1,600 -600 Descending Washington Center
08:28PM 35.9097 -78.7567 220° Southwest 112 129 1,000 -600 Descending Washington Center
08:30PM 35.8776 -78.7875 180° South  Level Estimated
08:37PM 35.8776 -78.7875 349° North  Level Estimated
08:38PM 35.8776 -78.7875 349° North  Level Estimated
08:39PM 35.8776 -78.7875 349° North  Level Estimated
08:40PM 35.8776 -78.7875 349° North  Level Estimated
08:41PM 35.8776 -78.7875 349° North  Level Estimated
08:42PM 35.8776 -78.7875 349° North  Level Estimated